Time;durP1;ratioP1;P1;durP2;ratioP2;P2;SDS_P1;SDS_P2;PMS_P1;PMS_P2;Temp;Humidity;BMP_temperature;BMP_pressure;BME280_temperature;BME280_humidity;BME280_pressure;Samples;Min_cycle;Max_cycle;Signal;HPM_P1;HPM_P2
2022/01/09 00:01:26;;;;;;;0.70;0.37;;;;;;;5.56;100.00;98074.44;5015506;28;20288;-50
2022/01/09 00:03:51;;;;;;;0.50;0.20;;;;;;;5.61;100.00;98070.00;5016789;28;20266;-50
2022/01/09 00:06:17;;;;;;;1.13;0.30;;;;;;;5.62;100.00;98068.28;5016130;28;20608;-49
2022/01/09 00:08:44;;;;;;;0.30;0.20;;;;;;;5.63;100.00;98059.72;5019617;28;20292;-50
2022/01/09 00:11:12;;;;;;;0.10;0.10;;;;;;;5.67;100.00;98061.34;5009181;28;20720;-50
2022/01/09 00:13:37;;;;;;;0.10;0.10;;;;;;;5.70;100.00;98052.72;5018455;28;20199;-50
2022/01/09 00:16:03;;;;;;;0.40;0.20;;;;;;;5.70;100.00;98053.53;5017308;28;20184;-50
2022/01/09 00:18:28;;;;;;;0.40;0.20;;;;;;;5.72;100.00;98041.50;5013917;28;20340;-50
2022/01/09 00:20:54;;;;;;;0.10;0.10;;;;;;;5.73;100.00;98038.06;5019688;28;20250;-50
2022/01/09 00:23:20;;;;;;;1.63;0.10;;;;;;;5.74;100.00;98038.94;5017620;28;20192;-50
2022/01/09 00:25:46;;;;;;;0.17;0.10;;;;;;;5.72;100.00;98018.41;5016758;28;20569;-50
2022/01/09 00:28:11;;;;;;;0.33;0.23;;;;;;;5.72;100.00;98013.28;5018305;28;20206;-50
2022/01/09 00:30:36;;;;;;;0.20;0.20;;;;;;;5.72;100.00;98008.16;5021265;28;20648;-50
2022/01/09 00:33:03;;;;;;;0.20;0.20;;;;;;;5.73;100.00;98011.56;5022365;28;20193;-50
2022/01/09 00:35:29;;;;;;;0.30;0.30;;;;;;;5.70;100.00;98001.38;5016554;28;20193;-50
2022/01/09 00:37:54;;;;;;;0.37;0.20;;;;;;;5.68;100.00;98003.97;5021370;28;20574;-50
2022/01/09 00:40:20;;;;;;;0.23;0.20;;;;;;;5.69;100.00;97999.69;5013728;28;20222;-50
2022/01/09 00:42:45;;;;;;;0.37;0.30;;;;;;;5.68;100.00;97998.84;5017526;28;20197;-50
2022/01/09 00:45:12;;;;;;;0.30;0.30;;;;;;;5.74;100.00;97992.72;5014404;28;20319;-50
2022/01/09 00:47:38;;;;;;;0.40;0.30;;;;;;;5.73;100.00;97991.03;5017072;28;20221;-50
2022/01/09 00:50:04;;;;;;;0.20;0.20;;;;;;;5.78;100.00;97982.34;5018072;28;20710;-50
2022/01/09 00:52:29;;;;;;;0.53;0.47;;;;;;;5.81;100.00;97986.53;5009910;28;20251;-50
2022/01/09 00:54:55;;;;;;;0.40;0.40;;;;;;;5.86;100.00;97981.28;5025155;28;20185;-50
2022/01/09 00:57:20;;;;;;;0.30;0.20;;;;;;;5.88;100.00;97985.50;5017088;28;20249;-50
2022/01/09 00:59:46;;;;;;;0.50;0.40;;;;;;;5.89;100.00;97984.63;5017457;28;20220;-50
2022/01/09 01:02:11;;;;;;;0.40;0.40;;;;;;;5.91;100.00;97975.13;5019351;28;20223;-50
2022/01/09 01:04:38;;;;;;;0.60;0.60;;;;;;;5.94;100.00;97979.34;5023040;28;20571;-50
2022/01/09 01:07:04;;;;;;;0.50;0.40;;;;;;;5.99;100.00;97967.22;5028397;28;20231;-50
2022/01/09 01:09:31;;;;;;;0.20;0.20;;;;;;;5.99;100.00;97971.53;5031780;28;20247;-50
2022/01/09 01:12:00;;;;;;;0.50;0.50;;;;;;;6.02;100.00;97977.44;5020119;28;20718;-50
2022/01/09 01:14:27;;;;;;;0.60;0.30;;;;;;;6.07;100.00;97977.31;5023986;28;20205;-50
2022/01/09 01:16:54;;;;;;;0.33;0.30;;;;;;;6.09;100.00;97976.41;5022052;28;20264;-50
2022/01/09 01:19:20;;;;;;;1.03;0.40;;;;;;;6.09;100.00;97981.53;5019348;28;20212;-50
2022/01/09 01:21:45;;;;;;;1.50;0.33;;;;;;;6.13;100.00;97986.56;5020624;28;20210;-50
2022/01/09 01:24:11;;;;;;;0.80;0.40;;;;;;;6.16;100.00;97964.22;5017128;28;20293;-50
2022/01/09 01:26:36;;;;;;;0.40;0.30;;;;;;;6.19;100.00;97987.25;5019508;28;20288;-49
2022/01/09 01:29:02;;;;;;;0.80;0.40;;;;;;;6.19;100.00;97984.69;5018446;28;20197;-50
2022/01/09 01:31:28;;;;;;;0.50;0.40;;;;;;;6.18;100.00;97987.28;5021605;28;20747;-50
2022/01/09 01:33:53;;;;;;;0.50;0.30;;;;;;;6.22;100.00;97994.84;5027963;28;20268;-50
2022/01/09 01:36:19;;;;;;;0.53;0.40;;;;;;;6.18;100.00;98012.97;5025331;28;20191;-50
2022/01/09 01:38:44;;;;;;;0.70;0.60;;;;;;;6.17;100.00;97998.44;5023791;28;20673;-50
2022/01/09 01:41:09;;;;;;;0.37;0.30;;;;;;;6.21;100.00;98008.56;5022628;28;20639;-50
2022/01/09 01:43:35;;;;;;;0.57;0.30;;;;;;;6.20;100.00;98006.06;5024587;28;20581;-49
2022/01/09 01:46:02;;;;;;;1.23;0.30;;;;;;;6.20;100.00;98024.03;5027079;28;20212;-50
2022/01/09 01:48:28;;;;;;;0.40;0.30;;;;;;;6.20;100.00;98018.91;5022172;28;20211;-50
2022/01/09 01:50:54;;;;;;;0.33;0.30;;;;;;;6.22;100.00;98038.50;5019334;28;20292;-50
2022/01/09 01:53:21;;;;;;;1.30;0.30;;;;;;;6.24;100.00;98025.66;5018219;28;20192;-50
2022/01/09 01:55:52;;;;;;;1.10;0.30;;;;;;;6.24;100.00;98007.66;5010628;28;20199;-50
2022/01/09 01:58:18;;;;;;;0.40;0.30;;;;;;;6.25;100.00;98023.03;5023652;28;20212;-50
2022/01/09 02:00:44;;;;;;;0.90;0.50;;;;;;;6.25;100.00;98012.75;5020815;28;20197;-50
2022/01/09 02:03:10;;;;;;;0.40;0.20;;;;;;;6.24;100.00;98029.03;5015745;28;20207;-50
2022/01/09 02:05:36;;;;;;;1.33;0.50;;;;;;;6.27;100.00;98040.97;5021707;28;20961;-50
2022/01/09 02:08:02;;;;;;;0.67;0.20;;;;;;;6.25;100.00;98040.19;5013702;28;20214;-50
2022/01/09 02:10:28;;;;;;;0.67;0.40;;;;;;;6.26;100.00;98047.00;5025195;28;20549;-50
2022/01/09 02:12:56;;;;;;;0.30;0.20;;;;;;;6.27;100.00;98052.97;5018160;28;20558;-50
2022/01/09 02:15:42;;;;;;;0.40;0.30;;;;;;;6.30;100.00;98056.28;5017159;28;20198;-50
2022/01/09 02:18:10;;;;;;;0.40;0.30;;;;;;;6.31;100.00;98062.28;5015459;28;20212;-49
2022/01/09 02:20:37;;;;;;;0.30;0.30;;;;;;;6.30;100.00;98060.59;5024649;28;20666;-49
2022/01/09 02:23:06;;;;;;;0.50;0.30;;;;;;;6.30;100.00;98068.31;5020492;28;20196;-50
2022/01/09 02:25:31;;;;;;;0.30;0.30;;;;;;;6.29;100.00;98074.31;5019960;28;20612;-50
2022/01/09 02:27:57;;;;;;;0.50;0.40;;;;;;;6.30;100.00;98079.41;5018355;28;20306;-51
2022/01/09 02:30:22;;;;;;;0.47;0.40;;;;;;;6.26;100.00;98085.53;5014019;28;20185;-50
2022/01/09 02:32:48;;;;;;;0.60;0.37;;;;;;;6.23;100.00;98081.28;5022186;28;20548;-50
2022/01/09 02:35:14;;;;;;;0.60;0.30;;;;;;;6.25;100.00;98088.97;5011881;28;20209;-50
2022/01/09 02:37:39;;;;;;;0.40;0.30;;;;;;;6.22;100.00;98099.31;5022686;28;20242;-50
2022/01/09 02:40:06;;;;;;;0.57;0.30;;;;;;;6.20;100.00;98095.97;5023369;28;20248;-49
2022/01/09 02:42:32;;;;;;;0.60;0.37;;;;;;;6.20;100.00;98098.53;5017957;28;20622;-49
2022/01/09 02:44:58;;;;;;;1.30;0.30;;;;;;;6.18;100.00;98103.72;5018676;28;20182;-49
2022/01/09 02:47:25;;;;;;;0.30;0.30;;;;;;;6.16;100.00;98110.63;5024852;28;20329;-49
2022/01/09 02:49:53;;;;;;;0.20;0.13;;;;;;;6.14;100.00;98106.38;5020936;28;20195;-51
2022/01/09 02:52:48;;;;;;;0.30;0.20;;;;;;;6.09;100.00;98114.22;5015799;28;20191;-50
2022/01/09 02:55:14;;;;;;;0.57;0.40;;;;;;;6.02;100.00;98118.66;5020930;28;20184;-50
2022/01/09 02:57:48;;;;;;;0.50;0.30;;;;;;;6.03;100.00;98129.78;5024047;28;20210;-50
2022/01/09 03:00:19;;;;;;;1.10;0.53;;;;;;;6.01;100.00;98140.06;5019149;28;20570;-50
2022/01/09 03:02:45;;;;;;;0.33;0.30;;;;;;;5.99;100.00;98140.97;5024622;28;20623;-50
2022/01/09 03:05:11;;;;;;;0.40;0.30;;;;;;;5.97;100.00;98150.44;5021068;28;21017;-50
2022/01/09 03:07:39;;;;;;;1.23;0.40;;;;;;;5.97;100.00;98151.28;5021555;28;20635;-50
2022/01/09 03:10:05;;;;;;;0.97;0.23;;;;;;;5.91;100.00;98159.13;5017657;28;20209;-50
2022/01/09 03:12:31;;;;;;;0.67;0.47;;;;;;;5.89;100.00;98160.88;5016905;28;20185;-51
2022/01/09 03:14:56;;;;;;;0.30;0.30;;;;;;;5.88;100.00;98190.88;5013929;28;20622;-51
2022/01/09 03:17:22;;;;;;;0.33;0.30;;;;;;;5.87;100.00;98188.31;5016058;28;20215;-50
2022/01/09 03:19:47;;;;;;;0.50;0.40;;;;;;;5.87;100.00;98201.16;5018399;28;20219;-50
2022/01/09 03:22:13;;;;;;;0.60;0.20;;;;;;;5.85;100.00;98208.03;5022476;28;20269;-50
2022/01/09 03:24:39;;;;;;;0.50;0.20;;;;;;;5.84;100.00;98216.63;5021131;28;20228;-50
2022/01/09 03:27:05;;;;;;;0.50;0.30;;;;;;;5.79;100.00;98216.72;5015392;28;20203;-50
2022/01/09 03:29:30;;;;;;;1.13;0.23;;;;;;;5.76;100.00;98233.06;5022548;28;20192;-50
2022/01/09 03:31:56;;;;;;;0.20;0.20;;;;;;;5.73;100.00;98233.13;5014737;28;20190;-50
2022/01/09 03:34:21;;;;;;;0.40;0.20;;;;;;;5.71;100.00;98255.41;5021286;28;20189;-50
2022/01/09 03:36:47;;;;;;;0.80;0.20;;;;;;;5.70;100.00;98251.16;5021091;28;20200;-50
2022/01/09 03:39:13;;;;;;;0.37;0.30;;;;;;;5.70;100.00;98265.72;5018012;28;20219;-50
2022/01/09 03:41:38;;;;;;;1.07;0.30;;;;;;;5.69;100.00;98269.16;5017524;28;20185;-50
2022/01/09 03:44:04;;;;;;;0.30;0.27;;;;;;;5.69;100.00;98269.16;5021845;28;20195;-50
2022/01/09 03:46:29;;;;;;;0.27;0.20;;;;;;;5.68;100.00;98288.84;5020658;28;20189;-50
2022/01/09 03:48:54;;;;;;;0.20;0.20;;;;;;;5.62;100.00;98294.09;5022371;28;20257;-50
2022/01/09 03:51:24;;;;;;;0.30;0.20;;;;;;;5.61;100.00;98305.25;5017663;28;20213;-50
2022/01/09 03:53:49;;;;;;;0.50;0.20;;;;;;;5.57;100.00;98307.03;5018419;28;20188;-50
2022/01/09 03:56:14;;;;;;;0.10;0.10;;;;;;;5.55;100.00;98315.63;5022205;28;20684;-51
2022/01/09 03:58:40;;;;;;;0.83;0.20;;;;;;;5.51;100.00;98319.97;5019333;28;20202;-50
2022/01/09 04:01:08;;;;;;;0.20;0.20;;;;;;;5.47;100.00;98336.31;5012664;28;20680;-50
2022/01/09 04:03:34;;;;;;;0.43;0.20;;;;;;;5.45;100.00;98349.19;5026810;28;20189;-50
2022/01/09 04:06:01;;;;;;;0.83;0.30;;;;;;;5.43;100.00;98360.34;5026632;28;20748;-50
2022/01/09 04:08:27;;;;;;;1.03;0.20;;;;;;;5.40;100.00;98370.66;5018814;28;20208;-50
2022/01/09 04:10:52;;;;;;;0.43;0.30;;;;;;;5.39;100.00;98390.31;5017451;28;20247;-50
2022/01/09 04:13:18;;;;;;;0.13;0.13;;;;;;;5.37;100.00;98392.06;5019593;28;20684;-50
2022/01/09 04:15:49;;;;;;;0.20;0.20;;;;;;;5.33;100.00;98408.41;5017115;28;20567;-50
2022/01/09 04:18:19;;;;;;;1.70;0.20;;;;;;;5.32;100.00;98422.09;5025008;28;20664;-50
2022/01/09 04:20:45;;;;;;;0.30;0.27;;;;;;;5.28;100.00;98435.84;5023676;28;20213;-50
2022/01/09 04:23:12;;;;;;;0.20;0.20;;;;;;;5.23;100.00;98441.06;5023141;28;20215;-49
2022/01/09 04:25:38;;;;;;;0.10;0.10;;;;;;;5.18;100.00;98460.81;5013605;28;20200;-50
2022/01/09 04:28:04;;;;;;;0.10;0.10;;;;;;;5.09;100.00;98479.75;5016650;28;20710;-49
2022/01/09 04:30:29;;;;;;;0.47;0.20;;;;;;;5.05;100.00;98488.38;5018779;28;20293;-49
2022/01/09 04:32:55;;;;;;;0.10;0.10;;;;;;;4.98;100.00;98497.00;5015970;28;20194;-49
2022/01/09 04:35:20;;;;;;;0.10;0.10;;;;;;;4.92;100.00;98504.78;5024639;28;20206;-50
2022/01/09 04:37:47;;;;;;;0.20;0.20;;;;;;;4.88;100.00;98509.97;5022664;28;20289;-50
2022/01/09 04:40:15;;;;;;;0.30;0.20;;;;;;;4.83;100.00;98531.44;5023207;28;20203;-50
2022/01/09 04:42:51;;;;;;;0.50;0.20;;;;;;;4.80;100.00;98527.16;5018406;28;20651;-50
2022/01/09 04:45:18;;;;;;;0.40;0.20;;;;;;;4.77;100.00;98539.19;5018499;28;20568;-50
2022/01/09 04:47:47;;;;;;;0.40;0.10;;;;;;;4.71;100.00;98540.94;5019178;28;20691;-50
2022/01/09 04:50:18;;;;;;;0.10;0.10;;;;;;;4.69;100.00;98550.38;5022420;28;20249;-50
2022/01/09 04:52:44;;;;;;;0.17;0.17;;;;;;;4.67;100.00;98556.41;5022212;28;20614;-50
2022/01/09 04:55:10;;;;;;;0.10;0.10;;;;;;;4.66;100.00;98570.06;5021508;28;20195;-50
2022/01/09 04:57:35;;;;;;;0.10;0.10;;;;;;;4.61;100.00;98575.25;5021922;28;20271;-50
2022/01/09 05:00:02;;;;;;;0.67;0.10;;;;;;;4.62;100.00;98576.09;5016193;28;20353;-50
2022/01/09 05:02:27;;;;;;;0.20;0.20;;;;;;;4.57;100.00;98578.72;5020167;28;20282;-50
2022/01/09 05:04:53;;;;;;;0.27;0.27;;;;;;;4.53;100.00;98588.16;5011823;28;20197;-50
2022/01/09 05:07:18;;;;;;;0.30;0.30;;;;;;;4.51;100.00;98596.75;5026168;28;20304;-50
2022/01/09 05:09:43;;;;;;;0.40;0.20;;;;;;;4.49;100.00;98593.34;5019707;28;20183;-50
2022/01/09 05:12:09;;;;;;;0.40;0.20;;;;;;;4.45;100.00;98600.22;5016730;28;20230;-50
2022/01/09 05:14:34;;;;;;;0.63;0.23;;;;;;;4.42;100.00;98603.66;5015493;28;20195;-50
2022/01/09 05:17:00;;;;;;;0.23;0.20;;;;;;;4.44;100.00;98611.34;5018035;28;20211;-50
2022/01/09 05:19:28;;;;;;;0.73;0.27;;;;;;;4.41;100.00;98613.91;5013252;28;20266;-50
2022/01/09 05:21:55;;;;;;;0.77;0.20;;;;;;;4.38;100.00;98625.06;5017928;28;20306;-50
2022/01/09 05:24:21;;;;;;;0.40;0.10;;;;;;;4.41;100.00;98626.72;5015873;28;20200;-50
2022/01/09 05:26:47;;;;;;;0.73;0.30;;;;;;;4.36;100.00;98634.47;5013131;28;20664;-50
2022/01/09 05:29:12;;;;;;;0.40;0.30;;;;;;;4.36;100.00;98631.91;5028525;28;20187;-50
2022/01/09 05:31:38;;;;;;;1.30;0.30;;;;;;;4.32;100.00;98640.47;5017280;28;20206;-50
2022/01/09 05:34:04;;;;;;;0.33;0.20;;;;;;;4.32;100.00;98643.03;5024286;28;20214;-50
2022/01/09 05:36:29;;;;;;;0.20;0.10;;;;;;;4.33;100.00;98651.56;5026065;28;20207;-50
2022/01/09 05:38:55;;;;;;;0.63;0.20;;;;;;;4.31;100.00;98656.69;5015896;28;20244;-50
2022/01/09 05:41:21;;;;;;;0.40;0.20;;;;;;;4.31;100.00;98659.25;5016059;28;20290;-50
2022/01/09 05:43:46;;;;;;;0.90;0.30;;;;;;;4.29;100.00;98668.66;5013605;28;20195;-50
2022/01/09 05:46:11;;;;;;;0.87;0.47;;;;;;;4.31;100.00;98671.25;5014950;28;20551;-50
2022/01/09 05:48:37;;;;;;;0.57;0.40;;;;;;;4.31;100.00;98678.91;5018077;28;20709;-50
2022/01/09 05:51:02;;;;;;;0.30;0.30;;;;;;;4.29;100.00;98689.16;5014594;28;20221;-50
2022/01/09 05:53:28;;;;;;;0.80;0.30;;;;;;;4.29;100.00;98690.88;5013075;28;20199;-50
2022/01/09 05:55:53;;;;;;;0.77;0.40;;;;;;;4.30;100.00;98700.28;5013225;28;20622;-50
2022/01/09 05:58:18;;;;;;;0.47;0.40;;;;;;;4.29;100.00;98696.84;5011462;28;20254;-50
2022/01/09 06:00:44;;;;;;;0.50;0.30;;;;;;;4.30;100.00;98700.28;5023420;28;20222;-50
2022/01/09 06:03:09;;;;;;;1.67;0.50;;;;;;;4.27;100.00;98706.25;5019847;28;20186;-50
2022/01/09 06:05:35;;;;;;;0.40;0.30;;;;;;;4.26;100.00;98713.09;5012157;28;20207;-50
2022/01/09 06:08:00;;;;;;;1.00;0.40;;;;;;;4.25;100.00;98711.38;5015883;28;20253;-50
2022/01/09 06:10:25;;;;;;;0.40;0.30;;;;;;;4.23;100.00;98723.34;5014415;28;20661;-50
2022/01/09 06:12:51;;;;;;;1.77;0.43;;;;;;;4.24;100.00;98726.75;5018525;28;20199;-50
2022/01/09 06:15:17;;;;;;;1.10;0.53;;;;;;;4.25;100.00;98741.25;5017633;28;20196;-50
2022/01/09 06:17:44;;;;;;;1.30;0.60;;;;;;;4.20;100.00;98743.84;5023619;28;20228;-50
2022/01/09 06:20:12;;;;;;;1.90;0.83;;;;;;;4.19;100.00;98741.31;5031260;28;20203;-50
2022/01/09 06:22:37;;;;;;;2.10;0.90;;;;;;;4.19;100.00;98749.84;5018399;28;20188;-50
2022/01/09 06:25:04;;;;;;;1.83;0.80;;;;;;;4.20;100.00;98758.38;5017726;28;20206;-50
2022/01/09 06:27:30;;;;;;;2.53;0.80;;;;;;;4.21;100.00;98772.91;5016363;28;20215;-50
2022/01/09 06:29:55;;;;;;;1.47;0.70;;;;;;;4.20;100.00;98779.72;5016973;28;20198;-51
2022/01/09 06:32:20;;;;;;;2.60;0.70;;;;;;;4.20;100.00;98782.28;5019373;28;20195;-49
2022/01/09 06:34:46;;;;;;;3.53;1.20;;;;;;;4.18;100.00;98788.28;5025894;28;20199;-50
2022/01/09 06:37:12;;;;;;;3.40;1.20;;;;;;;4.15;100.00;98793.41;5026907;28;20215;-50
2022/01/09 06:39:38;;;;;;;2.60;1.00;;;;;;;4.16;100.00;98793.38;5022618;28;20306;-50
2022/01/09 06:42:04;;;;;;;3.47;1.30;;;;;;;4.16;100.00;98797.66;5014898;28;20621;-50
2022/01/09 06:44:29;;;;;;;1.90;1.10;;;;;;;4.16;100.00;98807.91;5024826;28;20266;-50
2022/01/09 06:46:55;;;;;;;2.83;1.30;;;;;;;4.13;100.00;98813.91;5020379;28;20219;-50
2022/01/09 06:49:20;;;;;;;3.50;1.50;;;;;;;4.11;100.00;98823.31;5023538;28;20187;-50
2022/01/09 06:51:45;;;;;;;2.90;1.43;;;;;;;4.15;100.00;98830.13;5021230;28;20199;-50
2022/01/09 06:54:13;;;;;;;5.87;1.50;;;;;;;4.15;100.00;98835.25;5022259;28;20192;-50
2022/01/09 06:56:38;;;;;;;4.70;1.10;;;;;;;4.11;100.00;98838.66;5024853;28;20651;-50
2022/01/09 06:59:04;;;;;;;3.40;1.10;;;;;;;4.14;100.00;98853.16;5025084;28;20294;-50
2022/01/09 07:01:29;;;;;;;4.00;1.60;;;;;;;4.12;100.00;98851.44;5020930;28;20187;-50
2022/01/09 07:03:54;;;;;;;3.73;1.67;;;;;;;4.13;100.00;98857.44;5013568;28;20226;-51
2022/01/09 07:06:20;;;;;;;4.20;1.53;;;;;;;4.15;100.00;98853.16;5005452;28;20893;-50
2022/01/09 07:08:45;;;;;;;6.20;2.10;;;;;;;4.18;100.00;98852.28;5004448;28;20287;-50
2022/01/09 07:11:10;;;;;;;5.37;2.37;;;;;;;4.16;100.00;98857.41;5009171;28;20196;-50
2022/01/09 07:13:36;;;;;;;7.00;2.97;;;;;;;4.16;100.00;98859.13;5018109;28;20187;-50
2022/01/09 07:16:01;;;;;;;3.67;2.70;;;;;;;4.15;100.00;98863.41;5022156;28;20187;-50
2022/01/09 07:18:27;;;;;;;5.17;2.93;;;;;;;4.14;100.00;98871.06;5016352;28;20209;-49
2022/01/09 07:20:52;;;;;;;4.20;1.97;;;;;;;4.12;100.00;98878.78;5020208;28;20311;-50
2022/01/09 07:23:18;;;;;;;3.97;1.60;;;;;;;4.15;100.00;98888.16;5031750;28;20551;-50
2022/01/09 07:25:43;;;;;;;3.77;1.53;;;;;;;4.14;100.00;98892.44;5024897;28;20237;-49
2022/01/09 07:28:09;;;;;;;4.17;1.93;;;;;;;4.15;100.00;98899.25;5030351;28;20203;-51
2022/01/09 07:30:35;;;;;;;2.13;1.37;;;;;;;4.17;100.00;98900.06;5021464;28;20199;-49
2022/01/09 07:33:00;;;;;;;2.73;1.30;;;;;;;4.13;100.00;98893.28;5022990;28;20193;-49
2022/01/09 07:35:26;;;;;;;4.03;2.03;;;;;;;4.11;100.00;98898.41;5030704;28;20222;-49
2022/01/09 07:37:52;;;;;;;4.40;2.93;;;;;;;4.07;100.00;98894.16;5031365;28;20196;-49
2022/01/09 07:40:18;;;;;;;5.23;2.50;;;;;;;4.09;100.00;98906.97;5026745;28;20226;-50
2022/01/09 07:42:46;;;;;;;3.53;1.40;;;;;;;4.00;100.00;98912.97;5028499;28;20188;-51
2022/01/09 07:45:12;;;;;;;4.17;1.30;;;;;;;3.92;100.00;98917.28;5023306;28;20483;-50
2022/01/09 07:47:38;;;;;;;5.17;1.60;;;;;;;3.92;100.00;98927.53;5028150;28;20752;-51
2022/01/09 07:50:04;;;;;;;3.33;1.27;;;;;;;3.89;100.00;98930.91;5011698;28;20188;-49
2022/01/09 07:52:34;;;;;;;2.43;1.30;;;;;;;3.86;100.00;98925.81;5016891;28;20199;-52
2022/01/09 07:54:59;;;;;;;1.87;1.03;;;;;;;3.87;100.00;98924.13;5021685;28;20192;-52
2022/01/09 07:57:25;;;;;;;2.20;1.00;;;;;;;3.88;100.00;98924.09;5021869;28;20212;-52
2022/01/09 07:59:50;;;;;;;3.50;1.47;;;;;;;3.91;100.00;98941.16;5020148;28;20601;-50
2022/01/09 08:02:16;;;;;;;3.93;1.63;;;;;;;3.93;100.00;98937.75;5020743;28;20212;-51
2022/01/09 08:04:41;;;;;;;5.20;2.03;;;;;;;3.96;100.00;98940.28;5017971;28;20743;-51
2022/01/09 08:07:06;;;;;;;5.23;2.23;;;;;;;3.96;100.00;98940.28;5019114;28;20220;-51
2022/01/09 08:09:32;;;;;;;4.60;2.37;;;;;;;3.90;100.00;98945.41;5013247;28;20775;-50
2022/01/09 08:11:57;;;;;;;5.00;2.17;;;;;;;3.87;100.00;98942.88;5018778;28;20341;-52
2022/01/09 08:14:22;;;;;;;3.93;2.03;;;;;;;3.85;100.00;98969.34;5020023;28;20199;-49
2022/01/09 08:16:48;;;;;;;6.13;2.53;;;;;;;3.86;100.00;98963.34;5020246;28;22087;-50
2022/01/09 08:19:13;;;;;;;5.60;2.40;;;;;;;3.85;100.00;98975.31;5013753;28;20254;-50
2022/01/09 08:21:38;;;;;;;5.67;2.47;;;;;;;3.90;100.00;98973.56;5017652;28;20196;-50
2022/01/09 08:24:04;;;;;;;10.23;5.67;;;;;;;3.94;100.00;98982.97;5019500;28;20188;-50
2022/01/09 08:26:30;;;;;;;6.53;4.00;;;;;;;3.96;100.00;98988.06;5014624;28;20568;-50
2022/01/09 08:28:55;;;;;;;6.97;3.40;;;;;;;4.00;100.00;99002.56;5016054;28;20369;-50
2022/01/09 08:31:20;;;;;;;8.80;4.63;;;;;;;4.04;100.00;98986.34;5016468;28;20195;-50
2022/01/09 08:33:46;;;;;;;6.10;2.70;;;;;;;4.06;100.00;98988.88;5019074;28;20188;-50
2022/01/09 08:36:12;;;;;;;8.07;4.30;;;;;;;4.08;100.00;98984.63;5016963;28;20207;-50
2022/01/09 08:38:39;;;;;;;9.90;5.77;;;;;;;4.13;100.00;98977.78;5017689;28;20220;-50
2022/01/09 08:41:05;;;;;;;15.70;9.30;;;;;;;4.05;100.00;98995.72;5017793;28;20203;-50
2022/01/09 08:43:31;;;;;;;10.60;4.97;;;;;;;3.99;100.00;98989.78;5014872;28;20207;-50
2022/01/09 08:45:57;;;;;;;8.03;3.60;;;;;;;3.87;100.00;98995.78;5017111;28;20210;-50
2022/01/09 08:48:23;;;;;;;6.17;2.93;;;;;;;3.76;100.00;98993.22;5020465;28;20211;-49
2022/01/09 08:50:48;;;;;;;7.17;3.23;;;;;;;3.71;100.00;99000.06;5011751;28;20219;-50
2022/01/09 08:53:15;;;;;;;4.50;2.20;;;;;;;3.62;100.00;98999.22;5015621;28;20226;-49
2022/01/09 08:55:40;;;;;;;12.63;6.03;;;;;;;3.58;100.00;99005.19;5019947;28;20188;-50
2022/01/09 08:58:06;;;;;;;19.90;10.57;;;;;;;3.52;100.00;99007.78;5018784;28;20211;-49
2022/01/09 09:00:31;;;;;;;12.10;6.07;;;;;;;3.46;100.00;99012.88;5019733;28;20207;-50
2022/01/09 09:02:57;;;;;;;12.13;7.33;;;;;;;3.44;100.00;99019.72;5018128;28;20241;-50
2022/01/09 09:05:22;;;;;;;15.70;9.80;;;;;;;3.48;100.00;99017.16;5016906;28;20207;-50
2022/01/09 09:07:48;;;;;;;12.43;7.70;;;;;;;3.53;100.00;99037.63;5017304;28;20234;-50
2022/01/09 09:10:13;;;;;;;15.70;9.50;;;;;;;3.63;100.00;99033.38;5016861;28;20647;-50
2022/01/09 09:12:39;;;;;;;18.90;11.00;;;;;;;3.70;100.00;99041.88;5015885;28;20196;-50
2022/01/09 09:15:05;;;;;;;37.37;20.03;;;;;;;3.80;100.00;99051.25;5011541;28;20538;-51
2022/01/09 09:17:31;;;;;;;20.00;12.23;;;;;;;3.84;100.00;99050.38;5021432;28;20220;-50
2022/01/09 09:19:57;;;;;;;13.63;6.87;;;;;;;3.91;100.00;99051.22;5026808;28;20207;-50
2022/01/09 09:22:23;;;;;;;9.40;5.20;;;;;;;3.97;100.00;99056.31;5024850;28;20187;-50
2022/01/09 09:24:49;;;;;;;12.00;5.53;;;;;;;4.01;100.00;99045.22;5027862;28;20192;-50
2022/01/09 09:27:14;;;;;;;12.23;6.33;;;;;;;4.07;100.00;99058.03;5020439;28;20222;-50
2022/01/09 09:29:40;;;;;;;8.33;4.17;;;;;;;4.09;100.00;99053.72;5012994;28;20945;-50
2022/01/09 09:32:06;;;;;;;5.97;3.37;;;;;;;4.09;100.00;99061.41;5012539;28;20637;-50
2022/01/09 09:34:31;;;;;;;7.53;2.53;;;;;;;4.10;100.00;99054.59;5021539;28;20563;-50
2022/01/09 09:36:57;;;;;;;5.47;2.27;;;;;;;4.11;100.00;99057.13;5022364;28;20226;-50
2022/01/09 09:39:22;;;;;;;5.30;2.13;;;;;;;4.12;100.00;99063.97;5019372;28;20223;-50
2022/01/09 09:41:50;;;;;;;7.27;2.57;;;;;;;4.13;100.00;99067.41;5028048;28;20206;-50
2022/01/09 09:44:15;;;;;;;7.40;3.43;;;;;;;4.09;100.00;99081.91;5026929;28;20318;-50
2022/01/09 09:46:47;;;;;;;8.03;4.30;;;;;;;4.08;100.00;99085.31;5022848;28;20290;-50
2022/01/09 09:49:13;;;;;;;7.10;3.87;;;;;;;4.09;100.00;99093.84;5027490;28;20196;-50
2022/01/09 09:51:39;;;;;;;5.67;3.67;;;;;;;4.16;100.00;99094.69;5017148;28;20188;-50
2022/01/09 09:54:04;;;;;;;4.40;2.20;;;;;;;4.27;100.00;99093.81;5023385;28;20268;-50
2022/01/09 09:56:29;;;;;;;4.40;2.33;;;;;;;4.38;100.00;99098.94;5025412;28;20195;-50
2022/01/09 09:58:59;;;;;;;3.17;1.53;;;;;;;4.50;100.00;99095.44;5024324;28;20230;-50
2022/01/09 10:01:27;;;;;;;3.23;1.90;;;;;;;4.63;100.00;99097.97;5026455;28;20192;-50
2022/01/09 10:03:57;;;;;;;2.77;1.53;;;;;;;4.71;100.00;99104.75;5023870;28;20192;-50
2022/01/09 10:06:46;;;;;;;5.70;2.27;;;;;;;4.82;100.00;99104.72;5021508;28;20583;-50
2022/01/09 10:09:11;;;;;;;4.93;2.57;;;;;;;4.90;100.00;99099.56;5023181;28;20211;-52
2022/01/09 10:11:49;;;;;;;5.50;2.17;;;;;;;4.96;100.00;99101.22;5022222;28;20632;-51
2022/01/09 10:14:18;;;;;;;5.33;1.70;;;;;;;5.00;100.00;99096.06;5027162;28;20188;-51
2022/01/09 10:17:13;;;;;;;6.33;2.30;;;;;;;5.08;100.00;99092.63;5021888;28;20200;-51
2022/01/09 10:19:53;;;;;;;3.63;1.80;;;;;;;5.17;100.00;99093.44;5020276;28;20203;-50
2022/01/09 10:22:34;;;;;;;3.60;1.87;;;;;;;5.32;100.00;99099.31;5015232;28;20194;-50
2022/01/09 10:25:32;;;;;;;4.93;2.20;;;;;;;5.41;100.00;99094.13;5016325;28;20194;-50
2022/01/09 10:28:02;;;;;;;4.90;1.80;;;;;;;5.46;100.00;99097.50;5020823;28;20209;-50
2022/01/09 10:30:43;;;;;;;6.10;2.33;;;;;;;5.51;100.00;99099.19;5020246;28;20183;-50
2022/01/09 10:33:17;;;;;;;9.00;3.40;;;;;;;5.54;100.00;99092.31;5018398;28;20187;-50
2022/01/09 10:35:44;;;;;;;8.83;3.70;;;;;;;5.57;100.00;99096.56;5021088;28;20270;-50
2022/01/09 10:38:12;;;;;;;17.50;9.37;;;;;;;5.53;100.00;99092.31;5023207;28;20283;-50
2022/01/09 10:40:39;;;;;;;14.53;9.77;;;;;;;5.54;100.00;99088.88;5018014;28;20201;-50
2022/01/09 10:43:12;;;;;;;14.93;8.77;;;;;;;5.56;100.00;99097.44;5025742;28;20743;-50
2022/01/09 10:45:47;;;;;;;11.67;6.87;;;;;;;5.61;100.00;99100.81;5015014;28;20196;-51
2022/01/09 10:48:18;;;;;;;11.10;6.77;;;;;;;5.69;100.00;99098.19;5022607;28;20220;-50
2022/01/09 10:50:44;;;;;;;12.17;7.23;;;;;;;5.75;100.00;99106.69;5021909;28;20185;-52
2022/01/09 10:53:25;;;;;;;12.57;7.27;;;;;;;5.82;100.00;99098.94;5019351;28;20274;-50
2022/01/09 10:56:06;;;;;;;8.80;4.67;;;;;;;5.83;100.00;99095.50;5021145;28;20243;-52
2022/01/09 10:58:34;;;;;;;6.33;2.97;;;;;;;5.84;100.00;99098.06;5025608;28;20677;-52
2022/01/09 11:01:12;;;;;;;6.53;3.23;;;;;;;5.92;100.00;99098.84;5023707;28;20592;-51
2022/01/09 11:03:40;;;;;;;7.17;4.47;;;;;;;6.05;100.00;99109.06;5028851;28;20271;-51
2022/01/09 11:06:07;;;;;;;6.23;3.73;;;;;;;6.15;100.00;99110.66;5037385;28;20236;-51
2022/01/09 11:08:35;;;;;;;6.00;2.80;;;;;;;6.20;100.00;99106.28;5029363;28;20217;-49
2022/01/09 11:11:02;;;;;;;7.53;3.40;;;;;;;6.20;100.00;99106.28;5022085;28;20555;-52
2022/01/09 11:13:28;;;;;;;6.40;4.63;;;;;;;6.17;100.00;99108.94;5026818;28;20251;-51
2022/01/09 11:18:41;;;;;;;7.23;5.07;;;;;;;6.20;100.00;99111.44;5021660;28;20211;-50
2022/01/09 11:21:08;;;;;;;9.13;3.80;;;;;;;6.24;100.00;99112.28;5020765;28;20255;-51
2022/01/09 11:23:43;;;;;;;4.53;3.13;;;;;;;6.25;100.00;99111.41;5027321;28;20232;-50
2022/01/09 11:26:13;;;;;;;6.43;3.90;;;;;;;6.27;100.00;99109.69;5024769;28;20245;-50
2022/01/09 11:28:43;;;;;;;7.00;3.03;;;;;;;6.28;100.00;99108.78;5023297;28;20217;-49
2022/01/09 11:31:45;;;;;;;4.20;2.43;;;;;;;6.25;100.00;99109.69;5020435;28;20199;-49
2022/01/09 11:34:34;;;;;;;3.07;1.93;;;;;;;6.25;100.00;99107.13;5026918;28;20275;-49